CES5943 ZPZT-ZPPP
Flight info
| Callsign | CES5943 |
|---|---|
| Flight time | N/A |
| Altitude | 19700 |
| Route | HX W30 MEBNA |
| Aircraft | B737/M-SDE2E3FGHIRWXY/LB1 |
Departure
| Time | N/A |
|---|---|
| Airport | ZPZT |
Arrival
| Time | 2026-05-04 12:37 |
|---|---|
| Airport | Kunming Changshui International Airport (ZPPP) |
| Time | Latitude | Longitude | Altitude | Speed | Heading |
|---|---|---|---|---|---|
| 2026-05-04 11:55 | 27.32720 | 103.75367 | 6331 ft | 0 kts | 220° |
| 2026-05-04 11:57 | 27.32719 | 103.75366 | 6331 ft | 1 kts | 220° |
| 2026-05-04 11:57 | 27.32710 | 103.75361 | 6330 ft | 3 kts | 203° |
| 2026-05-04 11:58 | 27.32677 | 103.75377 | 6331 ft | 8 kts | 133° |
| 2026-05-04 11:58 | 27.32635 | 103.75434 | 6333 ft | 10 kts | 129° |
| 2026-05-04 11:58 | 27.32622 | 103.75499 | 6334 ft | 9 kts | 52° |
| 2026-05-04 11:58 | 27.32675 | 103.75551 | 6335 ft | 11 kts | 40° |
| 2026-05-04 11:59 | 27.32734 | 103.75608 | 6337 ft | 11 kts | 40° |
| 2026-05-04 11:59 | 27.32792 | 103.75663 | 6338 ft | 11 kts | 42° |
| 2026-05-04 11:59 | 27.32853 | 103.75725 | 6340 ft | 15 kts | 41° |
| 2026-05-04 11:59 | 27.32949 | 103.75819 | 6341 ft | 22 kts | 41° |
| 2026-05-04 12:00 | 27.33075 | 103.75942 | 6344 ft | 26 kts | 40° |
| 2026-05-04 12:00 | 27.33228 | 103.76089 | 6345 ft | 31 kts | 41° |
| 2026-05-04 12:00 | 27.33384 | 103.76247 | 6354 ft | 29 kts | 42° |
| 2026-05-04 12:00 | 27.33530 | 103.76395 | 6359 ft | 27 kts | 41° |
| 2026-05-04 12:01 | 27.33620 | 103.76465 | 6355 ft | 11 kts | 17° |
| 2026-05-04 12:01 | 27.33646 | 103.76493 | 6360 ft | 2 kts | 122° |
| 2026-05-04 12:02 | 27.33604 | 103.76464 | 6360 ft | 0 kts | 220° |
| 2026-05-04 12:03 | 27.33569 | 103.76431 | 6359 ft | 32 kts | 221° |
| 2026-05-04 12:03 | 27.33206 | 103.76076 | 6348 ft | 105 kts | 221° |
| 2026-05-04 12:03 | 27.32492 | 103.75378 | 6336 ft | 164 kts | 219° |
| 2026-05-04 12:04 | 27.31571 | 103.74495 | 6818 ft | 178 kts | 219° |
| 2026-05-04 12:04 | 27.30620 | 103.73571 | 7524 ft | 184 kts | 220° |
| 2026-05-04 12:04 | 27.29640 | 103.72601 | 8213 ft | 192 kts | 220° |
| 2026-05-04 12:04 | 27.28586 | 103.71558 | 8602 ft | 215 kts | 221° |
| 2026-05-04 12:05 | 27.27391 | 103.70381 | 8832 ft | 241 kts | 221° |
| 2026-05-04 12:05 | 27.26059 | 103.69075 | 9112 ft | 265 kts | 220° |
| 2026-05-04 12:05 | 27.24372 | 103.68064 | 9460 ft | 288 kts | 189° |
| 2026-05-04 12:05 | 27.22390 | 103.68292 | 10342 ft | 294 kts | 159° |
| 2026-05-04 12:06 | 27.20671 | 103.69650 | 10763 ft | 313 kts | 128° |
| 2026-05-04 12:06 | 27.19654 | 103.71739 | 11461 ft | 303 kts | 113° |
| 2026-05-04 12:06 | 27.18830 | 103.73953 | 12074 ft | 310 kts | 112° |
| 2026-05-04 12:06 | 27.17986 | 103.76191 | 12676 ft | 313 kts | 113° |
| 2026-05-04 12:07 | 27.17104 | 103.78441 | 13321 ft | 316 kts | 114° |
| 2026-05-04 12:07 | 27.16190 | 103.80707 | 13951 ft | 320 kts | 114° |
| 2026-05-04 12:07 | 27.15269 | 103.82959 | 14509 ft | 323 kts | 114° |
| 2026-05-04 12:07 | 27.14303 | 103.85287 | 15107 ft | 327 kts | 116° |
| 2026-05-04 12:08 | 27.13262 | 103.87545 | 15688 ft | 332 kts | 117° |
| 2026-05-04 12:08 | 27.12149 | 103.89851 | 16301 ft | 340 kts | 118° |
| 2026-05-04 12:08 | 27.11003 | 103.92206 | 16934 ft | 347 kts | 118° |
| 2026-05-04 12:08 | 27.09835 | 103.94615 | 17574 ft | 354 kts | 118° |
| 2026-05-04 12:09 | 27.08650 | 103.97075 | 18225 ft | 361 kts | 118° |
| 2026-05-04 12:09 | 27.07440 | 103.99595 | 18618 ft | 375 kts | 118° |
| 2026-05-04 12:09 | 27.06183 | 104.02220 | 19012 ft | 388 kts | 118° |
| 2026-05-04 12:09 | 27.04902 | 104.04894 | 19514 ft | 395 kts | 118° |
| 2026-05-04 12:10 | 27.03537 | 104.07626 | 19773 ft | 397 kts | 123° |
| 2026-05-04 12:10 | 27.01834 | 104.10054 | 19800 ft | 397 kts | 135° |
| 2026-05-04 12:10 | 26.99872 | 104.12267 | 19818 ft | 401 kts | 136° |
| 2026-05-04 12:10 | 26.97929 | 104.14448 | 19803 ft | 399 kts | 136° |
| 2026-05-04 12:11 | 26.95978 | 104.16666 | 19807 ft | 398 kts | 136° |
| 2026-05-04 12:11 | 26.94047 | 104.18885 | 19803 ft | 396 kts | 135° |
| 2026-05-04 12:11 | 26.92129 | 104.21098 | 19803 ft | 396 kts | 135° |
| 2026-05-04 12:11 | 26.90139 | 104.23232 | 19801 ft | 397 kts | 146° |
| 2026-05-04 12:12 | 26.87638 | 104.24579 | 19842 ft | 406 kts | 169° |
| 2026-05-04 12:12 | 26.84806 | 104.24871 | 19835 ft | 412 kts | 190° |
| 2026-05-04 12:12 | 26.82047 | 104.24103 | 19826 ft | 416 kts | 208° |
| 2026-05-04 12:12 | 26.79630 | 104.22378 | 19837 ft | 412 kts | 224° |
| 2026-05-04 12:13 | 26.77451 | 104.20291 | 19817 ft | 412 kts | 225° |
| 2026-05-04 12:14 | 26.62181 | 104.05914 | 19852 ft | 411 kts | 224° |
| 2026-05-04 12:15 | 26.59982 | 104.03862 | 19832 ft | 412 kts | 224° |
| 2026-05-04 12:15 | 26.57779 | 104.01810 | 19847 ft | 411 kts | 224° |
| 2026-05-04 12:15 | 26.56322 | 104.00454 | 19845 ft | 412 kts | 224° |
| 2026-05-04 12:15 | 26.54097 | 103.98383 | 19831 ft | 411 kts | 224° |
| 2026-05-04 12:16 | 26.51928 | 103.96367 | 19850 ft | 410 kts | 224° |
| 2026-05-04 12:16 | 26.49730 | 103.94326 | 19861 ft | 411 kts | 224° |
| 2026-05-04 12:16 | 26.47535 | 103.92287 | 19861 ft | 411 kts | 224° |
| 2026-05-04 12:16 | 26.45330 | 103.90239 | 19861 ft | 412 kts | 224° |
| 2026-05-04 12:17 | 26.43127 | 103.88195 | 19860 ft | 412 kts | 224° |
| 2026-05-04 12:17 | 26.40923 | 103.86150 | 19869 ft | 412 kts | 224° |
| 2026-05-04 12:17 | 26.38711 | 103.84104 | 19870 ft | 412 kts | 224° |
| 2026-05-04 12:17 | 26.36507 | 103.82061 | 19867 ft | 412 kts | 224° |
| 2026-05-04 12:18 | 26.34299 | 103.80014 | 19877 ft | 412 kts | 224° |
| 2026-05-04 12:18 | 26.32097 | 103.77975 | 19867 ft | 412 kts | 224° |
| 2026-05-04 12:18 | 26.29890 | 103.75933 | 19882 ft | 412 kts | 224° |
| 2026-05-04 12:18 | 26.27683 | 103.73895 | 19887 ft | 412 kts | 224° |
| 2026-05-04 12:19 | 26.25476 | 103.71853 | 19888 ft | 412 kts | 224° |
| 2026-05-04 12:19 | 26.23268 | 103.69811 | 19886 ft | 412 kts | 224° |
| 2026-05-04 12:19 | 26.21064 | 103.67776 | 19878 ft | 411 kts | 224° |
| 2026-05-04 12:19 | 26.18863 | 103.65746 | 19897 ft | 411 kts | 224° |
| 2026-05-04 12:20 | 26.16663 | 103.63718 | 19883 ft | 410 kts | 224° |
| 2026-05-04 12:20 | 26.14467 | 103.61690 | 19881 ft | 409 kts | 224° |
| 2026-05-04 12:20 | 26.12282 | 103.59674 | 19855 ft | 403 kts | 224° |
| 2026-05-04 12:20 | 26.10173 | 103.57734 | 19896 ft | 384 kts | 224° |
| 2026-05-04 12:21 | 26.08161 | 103.55882 | 19889 ft | 367 kts | 224° |
| 2026-05-04 12:21 | 26.06228 | 103.54101 | 19885 ft | 355 kts | 224° |
| 2026-05-04 12:21 | 26.04342 | 103.52359 | 19920 ft | 352 kts | 224° |
| 2026-05-04 12:21 | 26.02442 | 103.50600 | 19900 ft | 358 kts | 224° |
| 2026-05-04 12:22 | 26.00539 | 103.48848 | 19932 ft | 359 kts | 224° |
| 2026-05-04 12:22 | 25.98643 | 103.47105 | 19918 ft | 358 kts | 224° |
| 2026-05-04 12:22 | 25.96694 | 103.45447 | 19914 ft | 360 kts | 217° |
| 2026-05-04 12:22 | 25.94472 | 103.44143 | 19804 ft | 362 kts | 206° |
| 2026-05-04 12:23 | 25.92106 | 103.43177 | 19535 ft | 360 kts | 204° |
| 2026-05-04 12:23 | 25.89766 | 103.42250 | 19237 ft | 355 kts | 204° |
| 2026-05-04 12:23 | 25.87467 | 103.41334 | 18940 ft | 349 kts | 204° |
| 2026-05-04 12:23 | 25.85190 | 103.40417 | 18612 ft | 343 kts | 204° |
| 2026-05-04 12:24 | 25.82964 | 103.39514 | 18328 ft | 339 kts | 205° |
| 2026-05-04 12:24 | 25.80754 | 103.38615 | 17992 ft | 337 kts | 205° |
| 2026-05-04 12:24 | 25.78560 | 103.37723 | 17754 ft | 339 kts | 205° |
| 2026-05-04 12:24 | 25.76369 | 103.36827 | 17720 ft | 338 kts | 205° |
| 2026-05-04 12:25 | 25.74159 | 103.35923 | 17188 ft | 338 kts | 204° |
| 2026-05-04 12:25 | 25.71976 | 103.35036 | 16951 ft | 330 kts | 204° |
| 2026-05-04 12:25 | 25.69831 | 103.34161 | 16636 ft | 326 kts | 204° |
| 2026-05-04 12:25 | 25.67724 | 103.33302 | 16343 ft | 320 kts | 205° |
| 2026-05-04 12:26 | 25.65658 | 103.32458 | 16034 ft | 315 kts | 204° |
| 2026-05-04 12:26 | 25.63617 | 103.31626 | 15741 ft | 308 kts | 204° |
| 2026-05-04 12:26 | 25.61623 | 103.30813 | 15327 ft | 303 kts | 204° |
| 2026-05-04 12:26 | 25.59651 | 103.30009 | 14910 ft | 299 kts | 204° |
| 2026-05-04 12:27 | 25.57709 | 103.29217 | 14499 ft | 296 kts | 204° |
| 2026-05-04 12:27 | 25.55787 | 103.28433 | 14088 ft | 293 kts | 204° |
| 2026-05-04 12:27 | 25.53877 | 103.27655 | 13627 ft | 290 kts | 204° |
| 2026-05-04 12:27 | 25.52013 | 103.26897 | 13177 ft | 287 kts | 204° |
| 2026-05-04 12:28 | 25.50123 | 103.26129 | 12784 ft | 282 kts | 203° |
| 2026-05-04 12:28 | 25.48377 | 103.25252 | 12459 ft | 271 kts | 219° |
| 2026-05-04 12:28 | 25.46986 | 103.23954 | 12191 ft | 260 kts | 224° |
| 2026-05-04 12:28 | 25.45620 | 103.22676 | 11892 ft | 255 kts | 222° |
| 2026-05-04 12:29 | 25.44263 | 103.21448 | 11590 ft | 249 kts | 222° |
| 2026-05-04 12:29 | 25.42938 | 103.20258 | 11295 ft | 243 kts | 222° |
| 2026-05-04 12:29 | 25.41633 | 103.19092 | 11003 ft | 238 kts | 221° |
| 2026-05-04 12:29 | 25.40346 | 103.17969 | 10835 ft | 232 kts | 221° |
| 2026-05-04 12:30 | 25.39057 | 103.16846 | 10849 ft | 239 kts | 221° |
| 2026-05-04 12:30 | 25.37754 | 103.15713 | 10787 ft | 236 kts | 221° |
| 2026-05-04 12:30 | 25.36476 | 103.14603 | 10781 ft | 232 kts | 221° |
| 2026-05-04 12:30 | 25.35221 | 103.13512 | 10766 ft | 225 kts | 221° |
| 2026-05-04 12:31 | 25.34030 | 103.12479 | 10799 ft | 210 kts | 221° |
| 2026-05-04 12:31 | 25.32926 | 103.11518 | 10793 ft | 194 kts | 222° |
| 2026-05-04 12:31 | 25.31871 | 103.10595 | 10828 ft | 194 kts | 222° |
| 2026-05-04 12:31 | 25.30811 | 103.09668 | 10809 ft | 192 kts | 222° |
| 2026-05-04 12:32 | 25.29776 | 103.08764 | 10797 ft | 188 kts | 222° |
| 2026-05-04 12:32 | 25.27743 | 103.06986 | 10580 ft | 192 kts | 222° |
| 2026-05-04 12:32 | 25.26711 | 103.06085 | 10344 ft | 186 kts | 221° |
| 2026-05-04 12:33 | 25.25707 | 103.05209 | 10088 ft | 181 kts | 222° |
| 2026-05-04 12:33 | 25.24736 | 103.04358 | 9863 ft | 175 kts | 222° |
| 2026-05-04 12:33 | 25.23795 | 103.03524 | 9661 ft | 176 kts | 221° |
| 2026-05-04 12:33 | 25.22846 | 103.02693 | 9444 ft | 171 kts | 221° |
| 2026-05-04 12:34 | 25.21925 | 103.01891 | 9213 ft | 166 kts | 221° |
| 2026-05-04 12:34 | 25.21045 | 103.01125 | 9026 ft | 158 kts | 221° |
| 2026-05-04 12:34 | 25.20184 | 103.00375 | 8799 ft | 158 kts | 220° |
| 2026-05-04 12:34 | 25.19307 | 102.99610 | 8598 ft | 162 kts | 220° |
| 2026-05-04 12:35 | 25.18418 | 102.98836 | 8373 ft | 161 kts | 220° |
| 2026-05-04 12:35 | 25.17547 | 102.98077 | 8156 ft | 159 kts | 220° |
| 2026-05-04 12:35 | 25.16671 | 102.97314 | 7918 ft | 160 kts | 220° |
| 2026-05-04 12:35 | 25.15826 | 102.96578 | 7742 ft | 155 kts | 219° |
| 2026-05-04 12:36 | 25.14964 | 102.95827 | 7499 ft | 156 kts | 218° |
| 2026-05-04 12:36 | 25.14122 | 102.95083 | 7249 ft | 156 kts | 219° |
| 2026-05-04 12:36 | 25.13286 | 102.94345 | 6997 ft | 152 kts | 218° |
| 2026-05-04 12:36 | 25.12484 | 102.93660 | 6898 ft | 132 kts | 219° |
| 2026-05-04 12:37 | 25.11881 | 102.93137 | 6900 ft | 89 kts | 218° |
| 2026-05-04 12:37 | 25.11512 | 102.92817 | 6903 ft | 46 kts | 218° |
| 2026-05-04 12:37 | 25.11268 | 102.92652 | 6903 ft | 32 kts | 199° |
| 2026-05-04 12:37 | 25.11087 | 102.92611 | 6913 ft | 29 kts | 190° |
| 2026-05-04 12:38 | 25.11057 | 102.92605 | 6917 ft | 0 kts | 190° |
| 2026-05-04 12:39 | 25.11052 | 102.92604 | 6914 ft | 3 kts | 190° |
| 2026-05-04 12:39 | 25.11030 | 102.92599 | 6913 ft | 4 kts | 190° |
| 2026-05-04 12:39 | 25.10993 | 102.92588 | 6913 ft | 11 kts | 200° |
| 2026-05-04 12:39 | 25.10918 | 102.92544 | 6906 ft | 12 kts | 218° |
| 2026-05-04 12:40 | 25.10852 | 102.92486 | 6904 ft | 12 kts | 218° |
| 2026-05-04 12:40 | 25.10780 | 102.92450 | 6905 ft | 12 kts | 171° |
| 2026-05-04 12:40 | 25.10725 | 102.92512 | 6917 ft | 11 kts | 130° |
| 2026-05-04 12:40 | 25.10674 | 102.92578 | 6907 ft | 11 kts | 130° |
| 2026-05-04 12:41 | 25.10619 | 102.92634 | 6909 ft | 11 kts | 152° |
| 2026-05-04 12:41 | 25.10553 | 102.92669 | 6907 ft | 10 kts | 154° |
| 2026-05-04 12:41 | 25.10489 | 102.92704 | 6903 ft | 10 kts | 154° |
| 2026-05-04 12:41 | 25.10426 | 102.92737 | 6903 ft | 10 kts | 158° |
| 2026-05-04 12:42 | 25.10360 | 102.92731 | 6902 ft | 10 kts | 200° |
| 2026-05-04 12:42 | 25.10311 | 102.92685 | 6902 ft | 9 kts | 218° |
| 2026-05-04 12:42 | 25.10250 | 102.92662 | 6902 ft | 9 kts | 199° |
| 2026-05-04 12:42 | 25.10192 | 102.92637 | 6903 ft | 9 kts | 201° |
| 2026-05-04 12:43 | 25.10171 | 102.92628 | 6902 ft | 0 kts | 201° |
| 2026-05-04 12:43 | 25.10171 | 102.92627 | 6902 ft | 0 kts | 201° |